Time;durP1;ratioP1;P1;durP2;ratioP2;P2;SDS_P1;SDS_P2;PMS_P1;PMS_P2;Temp;Humidity;BMP_temperature;BMP_pressure;BME280_temperature;BME280_humidity;BME280_pressure;Samples;Min_cycle;Max_cycle;Signal;HPM_P1;HPM_P2
2023/07/27 00:01:00;;;;;;;0.20;0.20;;;;;;;;;;5071914;28;20070;-74
2023/07/27 00:03:25;;;;;;;0.20;0.20;;;;;;;;;;5071874;28;20148;-73
2023/07/27 00:05:50;;;;;;;0.20;0.20;;;;;;;;;;5074249;28;20047;-72
2023/07/27 00:08:16;;;;;;;0.15;0.15;;;;;;;;;;5075395;28;20039;-73
2023/07/27 00:10:41;;;;;;;0.20;0.20;;;;;;;;;;5075354;28;20141;-73
2023/07/27 00:13:07;;;;;;;0.10;0.10;;;;;;;;;;5075377;28;20033;-73
2023/07/27 00:15:32;;;;;;;0.10;0.10;;;;;;;;;;5075194;28;20047;-73
2023/07/27 00:17:58;;;;;;;0.20;0.20;;;;;;;;;;5075210;28;20029;-73
2023/07/27 00:20:23;;;;;;;0.10;0.10;;;;;;;;;;5075062;28;20040;-73
2023/07/27 00:22:49;;;;;;;0.28;0.28;;;;;;;;;;5075627;28;20036;-73
2023/07/27 00:25:14;;;;;;;0.20;0.20;;;;;;;;;;5057322;28;20185;-73
2023/07/27 00:27:40;;;;;;;0.17;0.17;;;;;;;;;;5075261;28;20040;-73
2023/07/27 00:30:05;;;;;;;0.20;0.20;;;;;;;;;;5073968;28;20071;-73
2023/07/27 00:32:31;;;;;;;0.20;0.20;;;;;;;;;;5056981;28;20503;-73
2023/07/27 00:34:57;;;;;;;0.20;0.20;;;;;;;;;;5074913;28;20037;-73
2023/07/27 00:37:23;;;;;;;0.10;0.10;;;;;;;;;;5074896;28;20089;-72
2023/07/27 00:39:49;;;;;;;3.10;2.45;;;;;;;;;;5056953;28;20028;-73
2023/07/27 00:42:14;;;;;;;0.20;0.20;;;;;;;;;;5074823;28;20032;-73
2023/07/27 00:44:39;;;;;;;0.20;0.20;;;;;;;;;;5075026;28;20032;-73
2023/07/27 00:47:05;;;;;;;0.10;0.10;;;;;;;;;;5070000;28;20032;-73
2023/07/27 00:49:31;;;;;;;0.20;0.20;;;;;;;;;;5069987;28;20033;-72
2023/07/27 00:51:58;;;;;;;0.13;0.13;;;;;;;;;;5054638;28;20444;-72
2023/07/27 00:54:23;;;;;;;0.20;0.20;;;;;;;;;;5054728;28;20047;-73
2023/07/27 00:56:49;;;;;;;0.20;0.20;;;;;;;;;;5054534;28;20033;-73
2023/07/27 00:59:15;;;;;;;0.20;0.20;;;;;;;;;;5054638;28;20525;-72
2023/07/27 01:01:40;;;;;;;0.20;0.20;;;;;;;;;;5054625;28;20036;-73
2023/07/27 01:04:06;;;;;;;0.20;0.20;;;;;;;;;;5054492;28;20047;-73
2023/07/27 01:06:32;;;;;;;0.20;0.20;;;;;;;;;;5054323;28;20124;-73
2023/07/27 01:08:58;;;;;;;0.20;0.20;;;;;;;;;;5054486;28;20439;-73
2023/07/27 01:11:26;;;;;;;0.20;0.20;;;;;;;;;;5054419;28;20107;-72
2023/07/27 01:13:59;;;;;;;0.20;0.20;;;;;;;;;;5069669;28;20356;-72
2023/07/27 01:16:40;;;;;;;0.20;0.20;;;;;;;;;;5073962;28;20064;-72
2023/07/27 01:19:24;;;;;;;0.20;0.20;;;;;;;;;;5056510;28;20059;-73
2023/07/27 01:21:55;;;;;;;0.15;0.15;;;;;;;;;;5074357;28;20031;-73
2023/07/27 01:24:38;;;;;;;0.20;0.20;;;;;;;;;;5074237;28;20040;-72
2023/07/27 01:27:24;;;;;;;0.20;0.20;;;;;;;;;;5056215;28;20036;-72
2023/07/27 01:29:56;;;;;;;0.10;0.10;;;;;;;;;;5055483;28;20048;-72
2023/07/27 01:32:23;;;;;;;0.13;0.13;;;;;;;;;;5056072;28;20124;-72
2023/07/27 01:34:51;;;;;;;0.10;0.10;;;;;;;;;;5074293;28;20028;-72
2023/07/27 01:37:17;;;;;;;0.20;0.20;;;;;;;;;;5074129;28;20032;-73
2023/07/27 01:39:43;;;;;;;0.10;0.10;;;;;;;;;;5073980;28;20083;-73
2023/07/27 01:42:11;;;;;;;0.10;0.10;;;;;;;;;;5074130;28;20434;-73
2023/07/27 01:44:37;;;;;;;0.20;0.20;;;;;;;;;;5056149;28;20033;-73
2023/07/27 01:47:06;;;;;;;0.20;0.20;;;;;;;;;;5072422;28;20043;-73
2023/07/27 01:49:32;;;;;;;0.20;0.20;;;;;;;;;;5073762;28;20031;-73
2023/07/27 01:51:58;;;;;;;0.10;0.10;;;;;;;;;;5073972;28;20032;-73
2023/07/27 01:54:26;;;;;;;0.20;0.20;;;;;;;;;;5073736;28;20028;-73
2023/07/27 01:56:54;;;;;;;0.20;0.20;;;;;;;;;;5073789;28;20178;-73
2023/07/27 01:59:20;;;;;;;0.10;0.10;;;;;;;;;;5073865;28;20020;-73
2023/07/27 02:01:46;;;;;;;0.20;0.20;;;;;;;;;;5073696;28;20060;-73
2023/07/27 02:04:12;;;;;;;0.20;0.20;;;;;;;;;;5073608;28;20376;-73
2023/07/27 02:06:38;;;;;;;0.20;0.20;;;;;;;;;;5055553;28;20028;-73
2023/07/27 02:09:04;;;;;;;0.10;0.10;;;;;;;;;;5073305;28;20024;-73
2023/07/27 02:11:29;;;;;;;0.20;0.20;;;;;;;;;;5073373;28;20068;-73
2023/07/27 02:14:08;;;;;;;0.10;0.10;;;;;;;;;;5073684;28;20028;-74
2023/07/27 02:16:43;;;;;;;0.20;0.20;;;;;;;;;;5072420;28;20041;-73
2023/07/27 02:19:10;;;;;;;0.10;0.10;;;;;;;;;;5073301;28;20029;-73
2023/07/27 02:21:37;;;;;;;0.25;0.25;;;;;;;;;;5073129;28;20039;-73
2023/07/27 02:24:03;;;;;;;0.10;0.10;;;;;;;;;;5073207;28;20079;-73
2023/07/27 02:26:29;;;;;;;0.20;0.20;;;;;;;;;;5072980;28;20124;-73
2023/07/27 02:28:56;;;;;;;0.20;0.20;;;;;;;;;;5072765;28;20107;-73
2023/07/27 02:31:23;;;;;;;0.10;0.10;;;;;;;;;;5055289;28;20052;-73
2023/07/27 02:33:49;;;;;;;0.30;0.30;;;;;;;;;;5073061;28;20040;-73
2023/07/27 02:36:15;;;;;;;0.20;0.20;;;;;;;;;;5072787;28;20124;-73
2023/07/27 02:38:41;;;;;;;0.20;0.20;;;;;;;;;;5072080;28;20123;-73
2023/07/27 02:41:09;;;;;;;0.20;0.20;;;;;;;;;;5073071;28;20031;-73
2023/07/27 02:43:34;;;;;;;0.32;0.32;;;;;;;;;;5055065;28;20025;-73
2023/07/27 02:46:00;;;;;;;0.30;0.30;;;;;;;;;;5072839;28;20064;-73
2023/07/27 02:48:27;;;;;;;0.30;0.30;;;;;;;;;;5072914;28;20032;-73
2023/07/27 02:50:52;;;;;;;0.20;0.20;;;;;;;;;;5072696;28;20033;-73
2023/07/27 02:53:18;;;;;;;0.20;0.20;;;;;;;;;;5055090;28;20035;-73
2023/07/27 02:55:59;;;;;;;0.10;0.10;;;;;;;;;;5054874;28;20127;-73
2023/07/27 02:58:25;;;;;;;;;;;;;;;;;;5073221;28;20032;-73
2023/07/27 03:00:54;;;;;;;0.20;0.20;;;;;;;;;;5072979;28;20363;-73
2023/07/27 03:03:19;;;;;;;0.20;0.20;;;;;;;;;;5038669;28;20087;-74
2023/07/27 03:05:46;;;;;;;0.10;0.10;;;;;;;;;;5047182;28;20034;-73
2023/07/27 03:08:14;;;;;;;0.20;0.20;;;;;;;;;;5029816;28;20449;-73
2023/07/27 03:10:41;;;;;;;0.20;0.20;;;;;;;;;;5046392;28;20065;-73
2023/07/27 03:13:07;;;;;;;0.20;0.20;;;;;;;;;;5051235;28;20056;-73
2023/07/27 03:15:32;;;;;;;0.10;0.10;;;;;;;;;;5050501;28;20089;-73
2023/07/27 03:17:58;;;;;;;0.25;0.25;;;;;;;;;;5068476;28;20031;-73
2023/07/27 03:20:23;;;;;;;0.20;0.20;;;;;;;;;;5068275;28;20109;-73
2023/07/27 03:22:49;;;;;;;0.20;0.20;;;;;;;;;;5068752;28;20037;-73
2023/07/27 03:25:15;;;;;;;0.10;0.10;;;;;;;;;;5068324;28;20385;-73
2023/07/27 03:27:40;;;;;;;0.20;0.20;;;;;;;;;;5068472;28;20051;-73
2023/07/27 03:30:06;;;;;;;0.20;0.20;;;;;;;;;;5068387;28;20032;-73
2023/07/27 03:32:32;;;;;;;0.20;0.20;;;;;;;;;;5067991;28;20044;-73
2023/07/27 03:34:57;;;;;;;0.20;0.20;;;;;;;;;;5049777;28;20174;-73
2023/07/27 03:37:23;;;;;;;0.22;0.22;;;;;;;;;;5067958;28;20128;-73
2023/07/27 03:39:48;;;;;;;0.20;0.20;;;;;;;;;;5070670;28;20063;-73
2023/07/27 03:42:14;;;;;;;0.20;0.20;;;;;;;;;;5071291;28;20479;-73
2023/07/27 03:44:39;;;;;;;0.20;0.20;;;;;;;;;;5071652;28;20037;-73
2023/07/27 03:47:05;;;;;;;0.20;0.20;;;;;;;;;;5053149;28;20419;-73
2023/07/27 03:49:31;;;;;;;0.25;0.25;;;;;;;;;;5071849;28;20131;-74
2023/07/27 03:51:58;;;;;;;0.13;0.13;;;;;;;;;;5053521;28;20449;-73
2023/07/27 03:54:23;;;;;;;0.20;0.20;;;;;;;;;;5071440;28;20123;-74
2023/07/27 03:56:49;;;;;;;10.88;4.90;;;;;;;;;;5053288;28;20043;-73
2023/07/27 03:59:14;;;;;;;0.40;0.40;;;;;;;;;;5070885;28;20036;-74
2023/07/27 04:01:39;;;;;;;0.20;0.20;;;;;;;;;;5071453;28;20024;-74
2023/07/27 04:04:05;;;;;;;0.15;0.15;;;;;;;;;;5052852;28;20491;-74
2023/07/27 04:06:30;;;;;;;0.20;0.20;;;;;;;;;;5071736;28;20046;-75
2023/07/27 04:08:56;;;;;;;0.15;0.15;;;;;;;;;;5053120;28;20041;-75
2023/07/27 04:11:21;;;;;;;0.20;0.20;;;;;;;;;;5070801;28;20051;-74
2023/07/27 04:13:47;;;;;;;1.65;0.40;;;;;;;;;;5070993;28;20115;-74
2023/07/27 04:16:12;;;;;;;1.27;0.95;;;;;;;;;;5070764;28;20071;-74
2023/07/27 04:18:38;;;;;;;2.72;1.73;;;;;;;;;;5052775;28;20227;-74
2023/07/27 04:21:04;;;;;;;0.15;0.15;;;;;;;;;;5071274;28;20482;-74
2023/07/27 04:23:29;;;;;;;0.10;0.10;;;;;;;;;;5071116;28;20496;-73
2023/07/27 04:25:54;;;;;;;0.20;0.20;;;;;;;;;;5071084;28;20032;-74
2023/07/27 04:28:20;;;;;;;0.10;0.10;;;;;;;;;;5070783;28;20460;-74
2023/07/27 04:30:46;;;;;;;0.10;0.10;;;;;;;;;;5070860;28;20123;-73
2023/07/27 04:33:11;;;;;;;0.20;0.20;;;;;;;;;;5070741;28;20120;-73
2023/07/27 04:35:37;;;;;;;0.63;0.63;;;;;;;;;;5071176;28;20383;-73
2023/07/27 04:38:03;;;;;;;0.20;0.20;;;;;;;;;;5053019;28;20247;-73
2023/07/27 04:40:28;;;;;;;0.10;0.10;;;;;;;;;;5052918;28;20438;-73
2023/07/27 04:42:53;;;;;;;0.20;0.20;;;;;;;;;;5070822;28;20033;-74
2023/07/27 04:45:19;;;;;;;0.20;0.20;;;;;;;;;;5048524;28;20128;-74
2023/07/27 04:47:44;;;;;;;0.20;0.20;;;;;;;;;;5069175;28;20044;-74
2023/07/27 04:50:10;;;;;;;0.20;0.20;;;;;;;;;;5069858;28;20079;-75
2023/07/27 04:52:35;;;;;;;0.20;0.20;;;;;;;;;;5070686;28;20453;-75
2023/07/27 04:55:02;;;;;;;0.10;0.10;;;;;;;;;;5070773;28;20032;-74
2023/07/27 04:57:27;;;;;;;0.20;0.20;;;;;;;;;;5070783;28;20047;-74
2023/07/27 04:59:53;;;;;;;0.40;0.40;;;;;;;;;;5070963;28;20048;-74
2023/07/27 05:02:18;;;;;;;0.20;0.20;;;;;;;;;;5070800;28;20032;-71
2023/07/27 05:04:44;;;;;;;0.20;0.20;;;;;;;;;;5070277;28;20033;-70
2023/07/27 05:07:09;;;;;;;0.20;0.20;;;;;;;;;;5050306;28;20496;-71
2023/07/27 05:09:34;;;;;;;0.20;0.20;;;;;;;;;;5050808;28;20104;-71
2023/07/27 05:12:00;;;;;;;0.20;0.20;;;;;;;;;;5050946;28;20037;-70
2023/07/27 05:14:26;;;;;;;0.20;0.20;;;;;;;;;;5050227;28;20029;-72
2023/07/27 05:16:51;;;;;;;0.20;0.20;;;;;;;;;;5050144;28;20036;-71
2023/07/27 05:19:16;;;;;;;0.10;0.10;;;;;;;;;;5050269;28;20032;-71
2023/07/27 05:21:42;;;;;;;0.20;0.20;;;;;;;;;;5063481;28;20033;-72
2023/07/27 05:24:07;;;;;;;0.28;0.28;;;;;;;;;;5070576;28;20116;-71
2023/07/27 05:26:33;;;;;;;0.20;0.20;;;;;;;;;;5070734;28;20098;-72
2023/07/27 05:28:58;;;;;;;0.20;0.20;;;;;;;;;;5078799;28;20119;-72
2023/07/27 05:31:24;;;;;;;0.20;0.20;;;;;;;;;;5086746;28;20111;-73
2023/07/27 05:33:49;;;;;;;0.20;0.20;;;;;;;;;;5090274;28;20038;-73
2023/07/27 05:36:15;;;;;;;0.50;0.50;;;;;;;;;;5090023;28;20112;-72
2023/07/27 05:38:41;;;;;;;0.20;0.20;;;;;;;;;;5072302;28;20038;-71
2023/07/27 05:41:07;;;;;;;0.20;0.20;;;;;;;;;;5090444;28;20075;-69
2023/07/27 05:43:32;;;;;;;0.20;0.20;;;;;;;;;;5090412;28;20063;-70
2023/07/27 05:45:58;;;;;;;0.20;0.20;;;;;;;;;;5090255;28;20036;-71
2023/07/27 05:48:24;;;;;;;0.20;0.20;;;;;;;;;;5090315;28;20036;-70
2023/07/27 05:50:51;;;;;;;0.20;0.20;;;;;;;;;;5090130;28;20525;-71
2023/07/27 05:53:16;;;;;;;0.20;0.20;;;;;;;;;;5089862;28;20036;-70
2023/07/27 05:55:42;;;;;;;0.20;0.20;;;;;;;;;;5090601;28;20065;-70
2023/07/27 05:58:07;;;;;;;0.20;0.20;;;;;;;;;;5069800;28;20522;-70
2023/07/27 06:00:33;;;;;;;0.17;0.17;;;;;;;;;;5069618;28;20036;-71
2023/07/27 06:02:58;;;;;;;0.20;0.20;;;;;;;;;;5068295;28;20033;-72
2023/07/27 06:05:24;;;;;;;0.20;0.20;;;;;;;;;;5069561;28;20048;-70
2023/07/27 06:07:49;;;;;;;0.20;0.20;;;;;;;;;;5069987;28;20075;-72
2023/07/27 06:10:15;;;;;;;0.20;0.20;;;;;;;;;;5069637;28;20036;-71
2023/07/27 06:12:40;;;;;;;0.20;0.20;;;;;;;;;;5068576;28;20107;-70
2023/07/27 06:15:06;;;;;;;0.20;0.20;;;;;;;;;;5069394;28;20072;-71
2023/07/27 06:17:31;;;;;;;0.20;0.20;;;;;;;;;;5069491;28;20036;-70
2023/07/27 06:19:57;;;;;;;4.00;0.75;;;;;;;;;;5069316;28;20029;-71
2023/07/27 06:22:22;;;;;;;2.10;0.98;;;;;;;;;;5068422;28;20037;-71
2023/07/27 06:24:47;;;;;;;0.20;0.20;;;;;;;;;;5067207;28;20507;-70
2023/07/27 06:27:13;;;;;;;0.20;0.20;;;;;;;;;;5067656;28;20029;-70
2023/07/27 06:29:38;;;;;;;0.20;0.20;;;;;;;;;;5077221;28;20044;-71
2023/07/27 06:32:04;;;;;;;0.75;0.73;;;;;;;;;;5084449;28;20379;-70
2023/07/27 06:34:29;;;;;;;0.20;0.20;;;;;;;;;;5086131;28;20399;-70
2023/07/27 06:36:55;;;;;;;0.20;0.20;;;;;;;;;;5062492;28;20097;-71
2023/07/27 06:39:20;;;;;;;0.10;0.10;;;;;;;;;;5073673;28;20481;-72
2023/07/27 06:41:46;;;;;;;0.22;0.22;;;;;;;;;;5062100;28;20502;-71
2023/07/27 06:44:11;;;;;;;0.20;0.20;;;;;;;;;;5058383;28;20028;-71
2023/07/27 06:46:37;;;;;;;9.25;2.42;;;;;;;;;;5070527;28;20028;-70
2023/07/27 06:49:02;;;;;;;0.28;0.28;;;;;;;;;;5068717;28;20028;-71
2023/07/27 06:51:28;;;;;;;0.85;0.45;;;;;;;;;;5068940;28;20036;-71
2023/07/27 06:53:54;;;;;;;0.77;0.45;;;;;;;;;;5068534;28;20032;-71
2023/07/27 06:56:20;;;;;;;1.23;0.65;;;;;;;;;;5050914;28;20043;-70
2023/07/27 06:58:45;;;;;;;0.20;0.20;;;;;;;;;;5067984;28;20024;-70
2023/07/27 07:01:11;;;;;;;0.30;0.30;;;;;;;;;;5068990;28;20491;-70
2023/07/27 07:03:36;;;;;;;1.55;0.98;;;;;;;;;;5068777;28;20124;-71
2023/07/27 07:06:02;;;;;;;0.40;0.30;;;;;;;;;;5069174;28;20039;-71
2023/07/27 07:08:29;;;;;;;0.50;0.50;;;;;;;;;;5069104;28;20025;-71
2023/07/27 07:10:55;;;;;;;0.20;0.20;;;;;;;;;;5063008;28;20439;-71
2023/07/27 07:13:21;;;;;;;3.90;1.45;;;;;;;;;;5056875;28;20607;-70
2023/07/27 07:15:48;;;;;;;0.20;0.20;;;;;;;;;;5056051;28;20028;-69
2023/07/27 07:18:14;;;;;;;0.20;0.20;;;;;;;;;;5058802;28;20111;-69
2023/07/27 07:20:39;;;;;;;0.20;0.20;;;;;;;;;;5056705;28;20128;-68
2023/07/27 07:23:04;;;;;;;1.15;0.73;;;;;;;;;;5057429;28;20025;-69
2023/07/27 07:25:31;;;;;;;4.65;1.42;;;;;;;;;;5061581;28;20106;-70
2023/07/27 07:27:56;;;;;;;1.23;0.68;;;;;;;;;;5067397;28;20029;-71
2023/07/27 07:30:22;;;;;;;0.63;0.63;;;;;;;;;;5069155;28;20104;-69
2023/07/27 07:32:49;;;;;;;3.15;1.08;;;;;;;;;;5086411;28;20020;-72
2023/07/27 07:35:14;;;;;;;0.20;0.20;;;;;;;;;;5078650;28;20020;-70
2023/07/27 07:37:40;;;;;;;4.82;1.15;;;;;;;;;;5081063;28;20109;-68
2023/07/27 07:40:06;;;;;;;0.32;0.32;;;;;;;;;;5065973;28;20425;-68
2023/07/27 07:42:32;;;;;;;0.30;0.30;;;;;;;;;;5088731;28;20028;-69
2023/07/27 07:44:57;;;;;;;1.95;0.50;;;;;;;;;;5070637;28;20051;-69
2023/07/27 07:47:23;;;;;;;0.20;0.20;;;;;;;;;;5071196;28;20036;-70
2023/07/27 07:49:48;;;;;;;1.85;1.05;;;;;;;;;;5067124;28;20043;-70
2023/07/27 07:52:14;;;;;;;2.45;1.10;;;;;;;;;;5068335;28;20486;-70
2023/07/27 07:54:39;;;;;;;2.83;0.90;;;;;;;;;;5068653;28;20037;-69
2023/07/27 07:57:05;;;;;;;7.25;2.38;;;;;;;;;;5067875;28;20450;-70
2023/07/27 07:59:31;;;;;;;1.38;1.38;;;;;;;;;;5069862;28;20036;-70
2023/07/27 08:01:56;;;;;;;0.20;0.20;;;;;;;;;;5067985;28;20025;-70
2023/07/27 08:04:22;;;;;;;2.08;0.88;;;;;;;;;;5059163;28;20032;-72
2023/07/27 08:06:47;;;;;;;0.43;0.43;;;;;;;;;;5073357;28;20032;-71
2023/07/27 08:09:13;;;;;;;0.80;0.73;;;;;;;;;;5082489;28;20024;-71
2023/07/27 08:11:41;;;;;;;0.65;0.65;;;;;;;;;;5068042;28;20028;-70
2023/07/27 08:14:07;;;;;;;;;;;;;;;;;;5058494;28;20037;-71
2023/07/27 08:16:33;;;;;;;5.10;0.95;;;;;;;;;;5048905;28;19921;-71
2023/07/27 08:18:59;;;;;;;0.30;0.30;;;;;;;;;;5046638;28;20086;-73
2023/07/27 08:21:25;;;;;;;0.20;0.20;;;;;;;;;;5067198;28;20032;-71
2023/07/27 08:23:52;;;;;;;3.72;2.38;;;;;;;;;;5085566;28;20032;-70
2023/07/27 08:26:18;;;;;;;2.67;1.38;;;;;;;;;;5087726;28;20028;-71
2023/07/27 08:28:45;;;;;;;0.20;0.20;;;;;;;;;;5089306;28;20563;-71
2023/07/27 08:31:11;;;;;;;0.30;0.30;;;;;;;;;;5089427;28;20506;-70
2023/07/27 08:33:37;;;;;;;0.30;0.30;;;;;;;;;;5090627;28;20039;-70
2023/07/27 08:36:03;;;;;;;3.90;0.63;;;;;;;;;;5090995;28;20038;-70
2023/07/27 08:38:29;;;;;;;1.85;1.05;;;;;;;;;;5073501;28;20093;-71
2023/07/27 08:41:04;;;;;;;3.60;1.55;;;;;;;;;;5091752;28;20028;-71
2023/07/27 08:43:30;;;;;;;0.30;0.30;;;;;;;;;;5090997;28;20126;-72
2023/07/27 08:45:55;;;;;;;0.30;0.30;;;;;;;;;;5077253;28;20119;-71
2023/07/27 08:48:22;;;;;;;0.40;0.40;;;;;;;;;;5068972;28;20364;-71
2023/07/27 08:50:48;;;;;;;0.30;0.30;;;;;;;;;;5071182;28;20031;-70
2023/07/27 08:53:14;;;;;;;7.95;1.45;;;;;;;;;;5070525;28;20028;-72
2023/07/27 08:55:40;;;;;;;0.55;0.55;;;;;;;;;;5069870;28;20111;-70
2023/07/27 08:58:08;;;;;;;1.73;1.63;;;;;;;;;;5069253;28;20024;-70
2023/07/27 09:00:34;;;;;;;5.25;1.52;;;;;;;;;;5068839;28;20044;-70
2023/07/27 09:03:00;;;;;;;0.30;0.30;;;;;;;;;;5050674;28;20044;-70
2023/07/27 09:05:42;;;;;;;1.23;0.85;;;;;;;;;;5068712;28;20029;-70
2023/07/27 09:08:09;;;;;;;4.13;1.45;;;;;;;;;;5050989;28;20068;-69
2023/07/27 09:10:35;;;;;;;0.70;0.43;;;;;;;;;;5069048;28;20458;-70
2023/07/27 09:13:01;;;;;;;2.03;0.70;;;;;;;;;;5069516;28;20353;-69
2023/07/27 09:15:26;;;;;;;0.52;0.50;;;;;;;;;;5069950;28;20028;-69
2023/07/27 09:17:52;;;;;;;5.10;1.48;;;;;;;;;;5070638;28;20544;-71
2023/07/27 09:20:18;;;;;;;9.55;1.77;;;;;;;;;;5070292;28;20040;-71
2023/07/27 09:22:45;;;;;;;2.20;0.88;;;;;;;;;;5070297;28;20070;-71
2023/07/27 09:25:11;;;;;;;4.13;1.33;;;;;;;;;;5070196;28;20123;-71
2023/07/27 09:27:43;;;;;;;2.17;1.15;;;;;;;;;;5070822;28;20174;-71
2023/07/27 09:30:09;;;;;;;4.47;1.67;;;;;;;;;;5069959;28;20067;-72
2023/07/27 09:32:35;;;;;;;3.95;1.55;;;;;;;;;;5052140;28;20119;-72
2023/07/27 09:35:01;;;;;;;0.85;0.68;;;;;;;;;;5070086;28;20542;-68
2023/07/27 09:37:28;;;;;;;0.30;0.30;;;;;;;;;;5069577;28;20078;-69
2023/07/27 09:40:04;;;;;;;1.58;0.98;;;;;;;;;;5069872;28;20467;-68
2023/07/27 09:42:32;;;;;;;0.60;0.60;;;;;;;;;;5052307;28;20392;-69
2023/07/27 09:44:58;;;;;;;3.67;1.55;;;;;;;;;;5069631;28;20216;-69
2023/07/27 09:47:29;;;;;;;0.55;0.55;;;;;;;;;;5069752;28;20387;-71
2023/07/27 09:49:57;;;;;;;2.45;0.90;;;;;;;;;;5070306;28;20036;-69
2023/07/27 09:52:23;;;;;;;0.40;0.40;;;;;;;;;;5070165;28;20037;-69
2023/07/27 09:54:49;;;;;;;0.30;0.30;;;;;;;;;;5069819;28;20563;-70
2023/07/27 09:57:15;;;;;;;5.10;0.80;;;;;;;;;;5069240;28;20115;-70
2023/07/27 09:59:41;;;;;;;6.03;1.48;;;;;;;;;;5051436;28;20094;-69
2023/07/27 10:02:07;;;;;;;1.92;0.90;;;;;;;;;;5069887;28;20502;-69
2023/07/27 10:04:32;;;;;;;2.47;1.27;;;;;;;;;;5069829;28;20029;-70
2023/07/27 10:06:58;;;;;;;0.30;0.30;;;;;;;;;;5069712;28;20127;-71
2023/07/27 10:09:23;;;;;;;5.80;1.88;;;;;;;;;;5069196;28;20056;-70
2023/07/27 10:11:55;;;;;;;2.30;0.85;;;;;;;;;;5069946;28;20060;-69
2023/07/27 10:14:23;;;;;;;7.30;1.50;;;;;;;;;;5069961;28;20384;-70
2023/07/27 10:16:57;;;;;;;5.47;1.17;;;;;;;;;;5069809;28;20093;-69
2023/07/27 10:19:23;;;;;;;3.47;1.08;;;;;;;;;;5069383;28;20090;-69
2023/07/27 10:21:49;;;;;;;7.00;1.17;;;;;;;;;;5069411;28;20028;-69
2023/07/27 10:24:20;;;;;;;1.25;0.50;;;;;;;;;;5051541;28;20042;-69
2023/07/27 10:26:49;;;;;;;0.57;0.45;;;;;;;;;;5051149;28;20033;-69
2023/07/27 10:29:16;;;;;;;0.30;0.30;;;;;;;;;;5068814;28;20475;-69
2023/07/27 10:31:42;;;;;;;0.82;0.32;;;;;;;;;;5069198;28;20028;-70
2023/07/27 10:34:08;;;;;;;4.90;0.85;;;;;;;;;;5069154;28;20387;-69
2023/07/27 10:36:52;;;;;;;0.30;0.30;;;;;;;;;;5069327;28;20040;-70
2023/07/27 10:39:19;;;;;;;3.90;1.40;;;;;;;;;;5069193;28;20399;-70
2023/07/27 10:42:02;;;;;;;5.95;1.08;;;;;;;;;;5069379;28;20127;-69
2023/07/27 10:44:28;;;;;;;1.25;0.60;;;;;;;;;;5068776;28;20040;-69
2023/07/27 10:46:55;;;;;;;10.30;2.03;;;;;;;;;;5068972;28;20037;-70
2023/07/27 10:49:20;;;;;;;0.30;0.30;;;;;;;;;;5068001;28;20036;-69
2023/07/27 10:51:46;;;;;;;2.28;0.85;;;;;;;;;;5050756;28;20029;-71
2023/07/27 10:54:12;;;;;;;1.80;1.17;;;;;;;;;;5069300;28;20111;-69
2023/07/27 10:56:38;;;;;;;2.63;0.63;;;;;;;;;;5068503;28;20127;-70
2023/07/27 10:59:03;;;;;;;5.57;1.55;;;;;;;;;;5068627;28;20037;-69
2023/07/27 11:01:30;;;;;;;3.90;0.70;;;;;;;;;;5068599;28;20025;-70
2023/07/27 11:03:56;;;;;;;0.40;0.40;;;;;;;;;;5068888;28;20036;-69
2023/07/27 11:06:21;;;;;;;0.40;0.40;;;;;;;;;;5033939;28;20393;-69
2023/07/27 11:08:47;;;;;;;2.17;1.00;;;;;;;;;;5068998;28;20036;-72
2023/07/27 11:11:19;;;;;;;3.25;1.10;;;;;;;;;;5068417;28;20448;-70
2023/07/27 11:13:45;;;;;;;3.88;0.70;;;;;;;;;;5068904;28;20047;-69
2023/07/27 11:16:14;;;;;;;0.50;0.50;;;;;;;;;;5068119;28;20040;-71
2023/07/27 11:18:40;;;;;;;4.10;1.35;;;;;;;;;;5050863;28;20036;-70
2023/07/27 11:21:07;;;;;;;4.28;1.15;;;;;;;;;;5068143;28;20188;-69
2023/07/27 11:23:32;;;;;;;2.72;0.90;;;;;;;;;;5068736;28;20037;-69
2023/07/27 11:25:58;;;;;;;8.35;2.10;;;;;;;;;;5068175;28;20039;-69
2023/07/27 11:28:25;;;;;;;0.90;0.57;;;;;;;;;;5068441;28;20107;-69
2023/07/27 11:30:52;;;;;;;0.82;0.82;;;;;;;;;;5068175;28;20031;-69
2023/07/27 11:33:20;;;;;;;1.98;1.15;;;;;;;;;;5068020;28;20043;-69
2023/07/27 11:35:46;;;;;;;13.18;1.38;;;;;;;;;;5068177;28;20024;-71
2023/07/27 11:38:11;;;;;;;5.68;1.25;;;;;;;;;;5050759;28;20114;-70
2023/07/27 11:40:37;;;;;;;1.55;0.75;;;;;;;;;;5068491;28;20482;-70
2023/07/27 11:43:03;;;;;;;4.35;1.10;;;;;;;;;;5067886;28;20147;-71
2023/07/27 11:45:30;;;;;;;0.73;0.73;;;;;;;;;;5068119;28;20071;-70
2023/07/27 11:47:55;;;;;;;3.03;0.90;;;;;;;;;;5068117;28;20068;-69
2023/07/27 11:50:21;;;;;;;2.67;1.27;;;;;;;;;;5067884;28;20500;-69
2023/07/27 11:52:49;;;;;;;1.40;0.85;;;;;;;;;;5068165;28;20108;-71
2023/07/27 11:55:15;;;;;;;2.30;0.90;;;;;;;;;;5067556;28;20029;-70
2023/07/27 11:57:41;;;;;;;2.33;1.02;;;;;;;;;;5068124;28;20037;-69
2023/07/27 12:00:14;;;;;;;0.77;0.52;;;;;;;;;;5068030;28;20361;-69
2023/07/27 12:02:40;;;;;;;2.65;0.40;;;;;;;;;;5071902;28;20059;-69
2023/07/27 12:05:05;;;;;;;2.88;0.88;;;;;;;;;;5071490;28;20476;-69
2023/07/27 12:07:32;;;;;;;1.85;0.77;;;;;;;;;;5071408;28;20028;-70
2023/07/27 12:09:57;;;;;;;1.50;0.88;;;;;;;;;;5071368;28;20078;-69
2023/07/27 12:12:23;;;;;;;0.50;0.50;;;;;;;;;;5071509;28;20515;-69
2023/07/27 12:14:49;;;;;;;2.33;1.02;;;;;;;;;;5071440;28;20517;-69
2023/07/27 12:17:14;;;;;;;0.95;0.63;;;;;;;;;;5070271;28;20110;-71
2023/07/27 12:19:40;;;;;;;2.58;0.75;;;;;;;;;;5070362;28;20057;-69
2023/07/27 12:22:05;;;;;;;3.05;1.15;;;;;;;;;;5083774;28;20039;-71
2023/07/27 12:24:31;;;;;;;4.35;1.25;;;;;;;;;;5084141;28;20062;-70
2023/07/27 12:26:58;;;;;;;5.22;1.00;;;;;;;;;;5071270;28;20071;-69
2023/07/27 12:29:24;;;;;;;2.05;0.93;;;;;;;;;;5055474;28;20020;-69
2023/07/27 12:31:49;;;;;;;2.67;0.80;;;;;;;;;;5050781;28;20025;-70
2023/07/27 12:34:15;;;;;;;1.30;0.90;;;;;;;;;;5051154;28;20086;-69
2023/07/27 12:36:40;;;;;;;0.93;0.60;;;;;;;;;;5050881;28;20439;-69
2023/07/27 12:39:06;;;;;;;1.70;0.70;;;;;;;;;;5051006;28;20338;-70
2023/07/27 12:41:31;;;;;;;15.90;1.40;;;;;;;;;;5050597;28;20037;-70
2023/07/27 12:43:56;;;;;;;1.45;0.80;;;;;;;;;;5050921;28;20086;-70
2023/07/27 12:46:23;;;;;;;0.75;0.50;;;;;;;;;;5050930;28;20040;-71
2023/07/27 12:48:48;;;;;;;2.83;0.98;;;;;;;;;;5050747;28;20388;-70
2023/07/27 12:51:14;;;;;;;1.67;0.68;;;;;;;;;;5050273;28;20044;-69
2023/07/27 12:53:39;;;;;;;0.60;0.50;;;;;;;;;;5050483;28;20056;-70
2023/07/27 12:56:05;;;;;;;2.65;1.17;;;;;;;;;;5050916;28;20091;-69
2023/07/27 12:58:30;;;;;;;0.47;0.47;;;;;;;;;;5050515;28;20094;-70
2023/07/27 13:00:56;;;;;;;2.08;1.02;;;;;;;;;;5050510;28;20136;-71
2023/07/27 13:03:22;;;;;;;0.80;0.50;;;;;;;;;;5050382;28;20025;-69
2023/07/27 13:05:48;;;;;;;3.92;0.70;;;;;;;;;;5050648;28;20545;-69
2023/07/27 13:08:13;;;;;;;1.05;0.77;;;;;;;;;;5054582;28;20016;-71
2023/07/27 13:10:39;;;;;;;0.38;0.38;;;;;;;;;;5066844;28;20491;-71
2023/07/27 13:13:04;;;;;;;0.95;0.60;;;;;;;;;;5068052;28;20322;-70
2023/07/27 13:15:31;;;;;;;2.63;1.05;;;;;;;;;;5072630;28;20038;-71
2023/07/27 13:18:00;;;;;;;1.77;1.08;;;;;;;;;;5084001;28;20032;-69
2023/07/27 13:20:26;;;;;;;0.98;0.63;;;;;;;;;;5084676;28;20043;-68
2023/07/27 13:22:51;;;;;;;0.30;0.30;;;;;;;;;;5087561;28;20024;-70
2023/07/27 13:25:17;;;;;;;0.60;0.60;;;;;;;;;;5077213;28;20029;-70
2023/07/27 13:27:43;;;;;;;2.60;0.40;;;;;;;;;;5065597;28;20356;-71
2023/07/27 13:30:08;;;;;;;1.02;0.93;;;;;;;;;;5059626;28;20049;-72
2023/07/27 13:32:34;;;;;;;7.70;0.88;;;;;;;;;;5058228;28;20121;-70
2023/07/27 13:35:00;;;;;;;3.13;0.93;;;;;;;;;;5056580;28;20044;-72
2023/07/27 13:37:25;;;;;;;0.68;0.68;;;;;;;;;;5067874;28;20095;-70
2023/07/27 13:39:51;;;;;;;5.43;1.38;;;;;;;;;;5067713;28;20043;-70
2023/07/27 13:42:16;;;;;;;1.60;1.00;;;;;;;;;;5067747;28;20122;-71
2023/07/27 13:44:42;;;;;;;4.45;1.35;;;;;;;;;;5068265;28;20166;-69
2023/07/27 13:47:10;;;;;;;0.45;0.45;;;;;;;;;;5067613;28;20411;-71
2023/07/27 13:49:36;;;;;;;4.22;1.80;;;;;;;;;;5067511;28;20043;-70
2023/07/27 13:52:01;;;;;;;0.65;0.60;;;;;;;;;;5067572;28;20040;-69
2023/07/27 13:54:26;;;;;;;0.40;0.40;;;;;;;;;;5067597;28;20029;-71
2023/07/27 13:56:52;;;;;;;1.23;0.57;;;;;;;;;;5074911;28;20043;-71
2023/07/27 13:59:17;;;;;;;0.57;0.57;;;;;;;;;;5071939;28;20533;-71
2023/07/27 14:01:43;;;;;;;4.05;1.23;;;;;;;;;;5056056;28;20430;-69
2023/07/27 14:04:08;;;;;;;0.70;0.70;;;;;;;;;;5047286;28;20048;-70
2023/07/27 14:06:34;;;;;;;3.50;0.63;;;;;;;;;;5059010;28;20028;-70
2023/07/27 14:08:59;;;;;;;2.55;0.65;;;;;;;;;;5057354;28;20028;-72
2023/07/27 14:11:25;;;;;;;1.48;0.77;;;;;;;;;;5065568;28;20036;-69
2023/07/27 14:13:50;;;;;;;8.23;1.67;;;;;;;;;;5059292;28;20033;-70
2023/07/27 14:16:16;;;;;;;0.38;0.38;;;;;;;;;;5076077;28;20442;-69
2023/07/27 14:18:43;;;;;;;2.45;0.95;;;;;;;;;;5084765;28;20044;-70
2023/07/27 14:21:09;;;;;;;0.40;0.40;;;;;;;;;;5080572;28;20100;-72
2023/07/27 14:23:34;;;;;;;1.23;0.70;;;;;;;;;;5061242;28;20144;-69
2023/07/27 14:25:59;;;;;;;0.47;0.47;;;;;;;;;;5047343;28;20866;-71
2023/07/27 14:28:25;;;;;;;2.45;0.85;;;;;;;;;;5047316;28;20039;-70
2023/07/27 14:30:53;;;;;;;0.40;0.40;;;;;;;;;;5047383;28;20033;-69
2023/07/27 14:33:19;;;;;;;1.17;0.55;;;;;;;;;;5046820;28;20147;-70
2023/07/27 14:35:44;;;;;;;0.70;0.70;;;;;;;;;;5028698;28;20099;-71
2023/07/27 14:38:09;;;;;;;0.40;0.40;;;;;;;;;;5047069;28;20091;-71